sensor_id;sensor_type;location;lat;lon;timestamp;P1;durP1;ratioP1;P2;durP2;ratioP2
31402;SDS011;18039;52.188;21.024;2023-05-10T00:01:36;14.95;;;8.35;;
31402;SDS011;18039;52.188;21.024;2023-05-10T00:04:11;16.70;;;8.85;;
31402;SDS011;18039;52.188;21.024;2023-05-10T00:06:42;19.00;;;8.43;;
31402;SDS011;18039;52.188;21.024;2023-05-10T00:09:17;20.85;;;8.27;;
31402;SDS011;18039;52.188;21.024;2023-05-10T00:11:48;18.65;;;8.45;;
31402;SDS011;18039;52.188;21.024;2023-05-10T00:14:24;17.52;;;7.82;;
31402;SDS011;18039;52.188;21.024;2023-05-10T00:16:51;19.45;;;8.63;;
31402;SDS011;18039;52.188;21.024;2023-05-10T00:19:26;20.30;;;8.95;;
31402;SDS011;18039;52.188;21.024;2023-05-10T00:22:01;16.50;;;8.07;;
31402;SDS011;18039;52.188;21.024;2023-05-10T00:24:36;17.42;;;8.05;;
31402;SDS011;18039;52.188;21.024;2023-05-10T00:27:11;18.60;;;8.63;;
31402;SDS011;18039;52.188;21.024;2023-05-10T00:29:42;16.50;;;7.90;;
31402;SDS011;18039;52.188;21.024;2023-05-10T00:32:17;15.07;;;8.13;;
31402;SDS011;18039;52.188;21.024;2023-05-10T00:34:53;16.73;;;8.02;;
31402;SDS011;18039;52.188;21.024;2023-05-10T00:37:28;18.73;;;8.07;;
31402;SDS011;18039;52.188;21.024;2023-05-10T00:40:03;15.10;;;6.95;;
31402;SDS011;18039;52.188;21.024;2023-05-10T00:42:41;12.70;;;6.25;;
31402;SDS011;18039;52.188;21.024;2023-05-10T00:45:13;14.10;;;6.97;;
31402;SDS011;18039;52.188;21.024;2023-05-10T00:47:48;14.23;;;6.90;;
31402;SDS011;18039;52.188;21.024;2023-05-10T00:50:21;18.77;;;7.45;;
31402;SDS011;18039;52.188;21.024;2023-05-10T00:52:57;14.85;;;7.45;;
31402;SDS011;18039;52.188;21.024;2023-05-10T00:55:34;12.65;;;6.53;;
31402;SDS011;18039;52.188;21.024;2023-05-10T00:58:05;13.13;;;7.13;;
31402;SDS011;18039;52.188;21.024;2023-05-10T01:00:41;17.10;;;6.55;;
31402;SDS011;18039;52.188;21.024;2023-05-10T01:03:13;17.23;;;7.18;;
31402;SDS011;18039;52.188;21.024;2023-05-10T01:05:49;16.23;;;6.88;;
31402;SDS011;18039;52.188;21.024;2023-05-10T01:08:20;15.32;;;7.20;;
31402;SDS011;18039;52.188;21.024;2023-05-10T01:10:56;15.20;;;6.95;;
31402;SDS011;18039;52.188;21.024;2023-05-10T01:13:34;9.85;;;5.65;;
31402;SDS011;18039;52.188;21.024;2023-05-10T01:16:08;13.27;;;6.60;;
31402;SDS011;18039;52.188;21.024;2023-05-10T01:18:43;13.23;;;6.15;;
31402;SDS011;18039;52.188;21.024;2023-05-10T01:26:44;12.32;;;6.47;;
31402;SDS011;18039;52.188;21.024;2023-05-10T01:29:42;11.85;;;6.35;;
31402;SDS011;18039;52.188;21.024;2023-05-10T01:35:40;11.10;;;5.55;;
31402;SDS011;18039;52.188;21.024;2023-05-10T01:38:22;13.20;;;6.20;;
31402;SDS011;18039;52.188;21.024;2023-05-10T01:41:17;12.25;;;6.40;;
31402;SDS011;18039;52.188;21.024;2023-05-10T01:46:38;15.02;;;6.25;;
31402;SDS011;18039;52.188;21.024;2023-05-10T01:49:14;13.60;;;6.28;;
31402;SDS011;18039;52.188;21.024;2023-05-10T01:51:59;9.98;;;5.50;;
31402;SDS011;18039;52.188;21.024;2023-05-10T01:54:35;10.07;;;5.57;;
31402;SDS011;18039;52.188;21.024;2023-05-10T01:57:13;9.52;;;4.80;;
31402;SDS011;18039;52.188;21.024;2023-05-10T01:59:48;13.90;;;6.03;;
31402;SDS011;18039;52.188;21.024;2023-05-10T02:02:25;16.13;;;5.30;;
31402;SDS011;18039;52.188;21.024;2023-05-10T02:04:58;14.23;;;5.82;;
31402;SDS011;18039;52.188;21.024;2023-05-10T02:07:34;12.98;;;5.18;;
31402;SDS011;18039;52.188;21.024;2023-05-10T02:10:07;11.40;;;5.28;;
31402;SDS011;18039;52.188;21.024;2023-05-10T02:12:46;10.43;;;5.13;;
31402;SDS011;18039;52.188;21.024;2023-05-10T02:15:23;10.80;;;4.60;;
31402;SDS011;18039;52.188;21.024;2023-05-10T02:18:00;12.73;;;4.97;;
31402;SDS011;18039;52.188;21.024;2023-05-10T02:20:35;12.15;;;5.38;;
31402;SDS011;18039;52.188;21.024;2023-05-10T02:23:11;13.88;;;6.07;;
31402;SDS011;18039;52.188;21.024;2023-05-10T02:25:41;8.57;;;4.70;;
31402;SDS011;18039;52.188;21.024;2023-05-10T02:28:20;8.48;;;4.72;;
31402;SDS011;18039;52.188;21.024;2023-05-10T02:30:58;12.85;;;5.38;;
31402;SDS011;18039;52.188;21.024;2023-05-10T02:33:34;10.40;;;5.32;;
31402;SDS011;18039;52.188;21.024;2023-05-10T02:36:07;10.82;;;4.97;;
31402;SDS011;18039;52.188;21.024;2023-05-10T02:38:43;8.88;;;4.88;;
31402;SDS011;18039;52.188;21.024;2023-05-10T02:41:17;11.05;;;5.35;;
31402;SDS011;18039;52.188;21.024;2023-05-10T02:43:56;12.88;;;5.72;;
31402;SDS011;18039;52.188;21.024;2023-05-10T02:46:30;11.43;;;5.38;;
31402;SDS011;18039;52.188;21.024;2023-05-10T02:49:06;10.25;;;5.05;;
31402;SDS011;18039;52.188;21.024;2023-05-10T02:51:40;12.05;;;5.55;;
31402;SDS011;18039;52.188;21.024;2023-05-10T02:54:18;9.32;;;4.95;;
31402;SDS011;18039;52.188;21.024;2023-05-10T02:56:53;9.25;;;4.75;;
31402;SDS011;18039;52.188;21.024;2023-05-10T02:59:31;12.38;;;5.22;;
31402;SDS011;18039;52.188;21.024;2023-05-10T03:01:59;10.75;;;5.45;;
31402;SDS011;18039;52.188;21.024;2023-05-10T03:04:31;17.45;;;4.97;;
31402;SDS011;18039;52.188;21.024;2023-05-10T03:07:06;12.25;;;4.97;;
31402;SDS011;18039;52.188;21.024;2023-05-10T03:09:42;9.20;;;5.05;;
31402;SDS011;18039;52.188;21.024;2023-05-10T03:20:50;16.08;;;5.30;;
31402;SDS011;18039;52.188;21.024;2023-05-10T03:26:09;12.18;;;4.97;;
31402;SDS011;18039;52.188;21.024;2023-05-10T03:28:51;15.32;;;4.55;;
31402;SDS011;18039;52.188;21.024;2023-05-10T03:31:27;10.63;;;4.80;;
31402;SDS011;18039;52.188;21.024;2023-05-10T03:33:59;19.38;;;4.97;;
31402;SDS011;18039;52.188;21.024;2023-05-10T03:36:34;8.43;;;5.00;;
31402;SDS011;18039;52.188;21.024;2023-05-10T03:39:06;13.68;;;5.35;;
31402;SDS011;18039;52.188;21.024;2023-05-10T03:41:42;9.35;;;5.30;;
31402;SDS011;18039;52.188;21.024;2023-05-10T03:44:13;12.73;;;5.15;;
31402;SDS011;18039;52.188;21.024;2023-05-10T03:46:48;14.38;;;4.97;;
31402;SDS011;18039;52.188;21.024;2023-05-10T03:49:16;10.32;;;5.10;;
31402;SDS011;18039;52.188;21.024;2023-05-10T03:51:55;17.20;;;5.28;;
31402;SDS011;18039;52.188;21.024;2023-05-10T03:54:26;12.88;;;5.53;;
31402;SDS011;18039;52.188;21.024;2023-05-10T03:57:01;10.57;;;5.13;;
31402;SDS011;18039;52.188;21.024;2023-05-10T03:59:33;18.50;;;5.80;;
31402;SDS011;18039;52.188;21.024;2023-05-10T04:02:09;11.55;;;5.20;;
31402;SDS011;18039;52.188;21.024;2023-05-10T04:04:44;10.27;;;6.07;;
31402;SDS011;18039;52.188;21.024;2023-05-10T04:07:16;11.15;;;5.18;;
31402;SDS011;18039;52.188;21.024;2023-05-10T04:09:51;11.80;;;6.03;;
31402;SDS011;18039;52.188;21.024;2023-05-10T04:12:26;16.48;;;5.45;;
31402;SDS011;18039;52.188;21.024;2023-05-10T04:14:58;14.55;;;5.20;;
31402;SDS011;18039;52.188;21.024;2023-05-10T04:17:25;8.32;;;4.82;;
31402;SDS011;18039;52.188;21.024;2023-05-10T04:19:52;9.52;;;4.43;;
31402;SDS011;18039;52.188;21.024;2023-05-10T04:22:21;15.10;;;4.65;;
31402;SDS011;18039;52.188;21.024;2023-05-10T04:24:49;10.15;;;4.13;;
31402;SDS011;18039;52.188;21.024;2023-05-10T04:27:16;11.15;;;4.85;;
31402;SDS011;18039;52.188;21.024;2023-05-10T04:29:44;11.93;;;4.80;;
31402;SDS011;18039;52.188;21.024;2023-05-10T04:32:11;9.13;;;4.32;;
31402;SDS011;18039;52.188;21.024;2023-05-10T04:34:38;7.60;;;4.32;;
31402;SDS011;18039;52.188;21.024;2023-05-10T04:37:05;18.17;;;4.57;;
31402;SDS011;18039;52.188;21.024;2023-05-10T04:39:34;7.63;;;4.78;;
31402;SDS011;18039;52.188;21.024;2023-05-10T04:42:02;10.18;;;4.28;;
31402;SDS011;18039;52.188;21.024;2023-05-10T04:44:30;8.30;;;4.25;;
31402;SDS011;18039;52.188;21.024;2023-05-10T04:46:57;8.02;;;3.83;;
31402;SDS011;18039;52.188;21.024;2023-05-10T04:49:24;10.45;;;4.63;;
31402;SDS011;18039;52.188;21.024;2023-05-10T04:51:51;12.57;;;4.65;;
31402;SDS011;18039;52.188;21.024;2023-05-10T04:54:18;10.23;;;4.22;;
31402;SDS011;18039;52.188;21.024;2023-05-10T04:56:45;10.90;;;4.70;;
31402;SDS011;18039;52.188;21.024;2023-05-10T04:59:13;10.75;;;4.95;;
31402;SDS011;18039;52.188;21.024;2023-05-10T05:01:40;8.55;;;3.80;;
31402;SDS011;18039;52.188;21.024;2023-05-10T05:04:07;10.15;;;4.32;;
31402;SDS011;18039;52.188;21.024;2023-05-10T05:06:34;8.27;;;4.50;;
31402;SDS011;18039;52.188;21.024;2023-05-10T05:09:02;13.93;;;4.43;;
31402;SDS011;18039;52.188;21.024;2023-05-10T05:11:29;17.58;;;4.65;;
31402;SDS011;18039;52.188;21.024;2023-05-10T05:13:57;10.52;;;4.40;;
31402;SDS011;18039;52.188;21.024;2023-05-10T05:16:26;10.18;;;4.20;;
31402;SDS011;18039;52.188;21.024;2023-05-10T05:18:53;10.85;;;4.28;;
31402;SDS011;18039;52.188;21.024;2023-05-10T05:21:20;9.57;;;4.18;;
31402;SDS011;18039;52.188;21.024;2023-05-10T05:23:48;9.55;;;4.68;;
31402;SDS011;18039;52.188;21.024;2023-05-10T05:26:15;10.57;;;4.50;;
31402;SDS011;18039;52.188;21.024;2023-05-10T05:28:43;9.50;;;4.47;;
31402;SDS011;18039;52.188;21.024;2023-05-10T05:31:10;10.88;;;4.75;;
31402;SDS011;18039;52.188;21.024;2023-05-10T05:33:38;10.88;;;4.97;;
31402;SDS011;18039;52.188;21.024;2023-05-10T05:36:05;11.57;;;4.80;;
31402;SDS011;18039;52.188;21.024;2023-05-10T05:38:33;10.10;;;3.90;;
31402;SDS011;18039;52.188;21.024;2023-05-10T05:41:00;7.97;;;3.92;;
31402;SDS011;18039;52.188;21.024;2023-05-10T05:43:27;9.13;;;4.00;;
31402;SDS011;18039;52.188;21.024;2023-05-10T05:45:54;12.40;;;4.18;;
31402;SDS011;18039;52.188;21.024;2023-05-10T05:48:23;11.32;;;4.00;;
31402;SDS011;18039;52.188;21.024;2023-05-10T05:50:53;6.90;;;4.25;;
31402;SDS011;18039;52.188;21.024;2023-05-10T05:58:21;16.08;;;4.15;;
31402;SDS011;18039;52.188;21.024;2023-05-10T06:00:49;16.02;;;4.43;;
31402;SDS011;18039;52.188;21.024;2023-05-10T06:03:18;8.93;;;4.78;;
31402;SDS011;18039;52.188;21.024;2023-05-10T06:05:46;11.90;;;4.32;;
31402;SDS011;18039;52.188;21.024;2023-05-10T06:08:13;11.32;;;4.18;;
31402;SDS011;18039;52.188;21.024;2023-05-10T06:10:41;11.13;;;4.50;;
31402;SDS011;18039;52.188;21.024;2023-05-10T06:13:08;10.15;;;4.70;;
31402;SDS011;18039;52.188;21.024;2023-05-10T06:15:36;9.00;;;4.32;;
31402;SDS011;18039;52.188;21.024;2023-05-10T06:18:03;14.05;;;4.95;;
31402;SDS011;18039;52.188;21.024;2023-05-10T06:20:31;13.75;;;4.70;;
31402;SDS011;18039;52.188;21.024;2023-05-10T06:22:58;11.38;;;4.75;;
31402;SDS011;18039;52.188;21.024;2023-05-10T06:25:26;14.85;;;4.78;;
31402;SDS011;18039;52.188;21.024;2023-05-10T06:27:53;13.52;;;4.60;;
31402;SDS011;18039;52.188;21.024;2023-05-10T06:30:24;17.20;;;4.00;;
31402;SDS011;18039;52.188;21.024;2023-05-10T06:32:56;8.13;;;4.10;;
31402;SDS011;18039;52.188;21.024;2023-05-10T06:35:24;8.50;;;4.05;;
31402;SDS011;18039;52.188;21.024;2023-05-10T06:37:51;7.82;;;4.22;;
31402;SDS011;18039;52.188;21.024;2023-05-10T06:40:19;12.82;;;4.28;;
31402;SDS011;18039;52.188;21.024;2023-05-10T06:42:47;6.38;;;3.45;;
31402;SDS011;18039;52.188;21.024;2023-05-10T06:45:14;9.00;;;3.30;;
31402;SDS011;18039;52.188;21.024;2023-05-10T06:47:43;12.15;;;3.72;;
31402;SDS011;18039;52.188;21.024;2023-05-10T06:50:11;12.07;;;3.50;;
31402;SDS011;18039;52.188;21.024;2023-05-10T06:52:38;9.23;;;3.42;;
31402;SDS011;18039;52.188;21.024;2023-05-10T06:55:06;6.30;;;2.95;;
31402;SDS011;18039;52.188;21.024;2023-05-10T06:57:34;8.93;;;3.35;;
31402;SDS011;18039;52.188;21.024;2023-05-10T07:00:02;9.60;;;2.80;;
31402;SDS011;18039;52.188;21.024;2023-05-10T07:02:33;10.98;;;3.50;;
31402;SDS011;18039;52.188;21.024;2023-05-10T07:05:00;5.70;;;2.78;;
31402;SDS011;18039;52.188;21.024;2023-05-10T07:07:29;9.68;;;3.08;;
31402;SDS011;18039;52.188;21.024;2023-05-10T07:09:57;5.82;;;2.97;;
31402;SDS011;18039;52.188;21.024;2023-05-10T07:12:24;7.50;;;2.88;;
31402;SDS011;18039;52.188;21.024;2023-05-10T07:14:52;15.80;;;2.88;;
31402;SDS011;18039;52.188;21.024;2023-05-10T07:17:19;6.80;;;2.70;;
31402;SDS011;18039;52.188;21.024;2023-05-10T07:19:46;5.10;;;2.40;;
31402;SDS011;18039;52.188;21.024;2023-05-10T07:22:14;7.85;;;2.67;;
31402;SDS011;18039;52.188;21.024;2023-05-10T07:24:42;5.53;;;2.50;;
31402;SDS011;18039;52.188;21.024;2023-05-10T07:27:10;5.70;;;2.53;;
31402;SDS011;18039;52.188;21.024;2023-05-10T07:29:38;5.45;;;2.58;;
31402;SDS011;18039;52.188;21.024;2023-05-10T07:32:05;4.78;;;2.30;;
31402;SDS011;18039;52.188;21.024;2023-05-10T07:34:33;8.68;;;3.50;;
31402;SDS011;18039;52.188;21.024;2023-05-10T07:37:00;11.80;;;2.45;;
31402;SDS011;18039;52.188;21.024;2023-05-10T07:39:28;5.38;;;2.35;;
31402;SDS011;18039;52.188;21.024;2023-05-10T07:41:55;7.35;;;2.53;;
31402;SDS011;18039;52.188;21.024;2023-05-10T07:44:23;6.65;;;2.28;;
31402;SDS011;18039;52.188;21.024;2023-05-10T07:46:50;10.20;;;2.20;;
31402;SDS011;18039;52.188;21.024;2023-05-10T07:49:18;5.82;;;2.17;;
31402;SDS011;18039;52.188;21.024;2023-05-10T07:51:45;3.72;;;2.13;;
31402;SDS011;18039;52.188;21.024;2023-05-10T07:54:13;7.95;;;2.33;;
31402;SDS011;18039;52.188;21.024;2023-05-10T07:56:40;12.68;;;2.92;;
31402;SDS011;18039;52.188;21.024;2023-05-10T07:59:16;5.97;;;2.08;;
31402;SDS011;18039;52.188;21.024;2023-05-10T08:01:44;7.75;;;2.30;;
31402;SDS011;18039;52.188;21.024;2023-05-10T08:04:11;5.00;;;2.13;;
31402;SDS011;18039;52.188;21.024;2023-05-10T08:06:39;7.68;;;2.42;;
31402;SDS011;18039;52.188;21.024;2023-05-10T08:09:07;10.43;;;2.20;;
31402;SDS011;18039;52.188;21.024;2023-05-10T08:11:35;4.25;;;2.05;;
31402;SDS011;18039;52.188;21.024;2023-05-10T08:14:03;2.67;;;1.80;;
31402;SDS011;18039;52.188;21.024;2023-05-10T08:16:30;6.40;;;2.10;;
31402;SDS011;18039;52.188;21.024;2023-05-10T08:18:58;2.97;;;1.90;;
31402;SDS011;18039;52.188;21.024;2023-05-10T08:21:25;4.93;;;2.00;;
31402;SDS011;18039;52.188;21.024;2023-05-10T08:23:53;6.38;;;2.15;;
31402;SDS011;18039;52.188;21.024;2023-05-10T08:26:20;5.63;;;2.00;;
31402;SDS011;18039;52.188;21.024;2023-05-10T08:28:48;6.47;;;2.05;;
31402;SDS011;18039;52.188;21.024;2023-05-10T08:31:16;5.45;;;2.22;;
31402;SDS011;18039;52.188;21.024;2023-05-10T08:33:45;6.10;;;1.98;;
31402;SDS011;18039;52.188;21.024;2023-05-10T08:36:12;5.20;;;2.47;;
31402;SDS011;18039;52.188;21.024;2023-05-10T08:38:41;4.05;;;1.98;;
31402;SDS011;18039;52.188;21.024;2023-05-10T08:41:08;6.55;;;2.28;;
31402;SDS011;18039;52.188;21.024;2023-05-10T08:43:38;3.47;;;2.15;;
31402;SDS011;18039;52.188;21.024;2023-05-10T08:46:05;7.43;;;2.05;;
31402;SDS011;18039;52.188;21.024;2023-05-10T08:48:34;9.63;;;2.00;;
31402;SDS011;18039;52.188;21.024;2023-05-10T08:51:02;8.77;;;2.97;;
31402;SDS011;18039;52.188;21.024;2023-05-10T08:53:31;3.63;;;2.13;;
31402;SDS011;18039;52.188;21.024;2023-05-10T08:56:02;3.38;;;1.88;;
31402;SDS011;18039;52.188;21.024;2023-05-10T08:58:30;4.28;;;2.03;;
31402;SDS011;18039;52.188;21.024;2023-05-10T09:00:58;7.00;;;2.40;;
31402;SDS011;18039;52.188;21.024;2023-05-10T09:03:26;4.57;;;2.03;;
31402;SDS011;18039;52.188;21.024;2023-05-10T09:05:53;12.07;;;2.58;;
31402;SDS011;18039;52.188;21.024;2023-05-10T09:08:23;4.63;;;1.95;;
31402;SDS011;18039;52.188;21.024;2023-05-10T09:10:54;3.80;;;2.10;;
31402;SDS011;18039;52.188;21.024;2023-05-10T09:13:22;4.70;;;1.95;;
31402;SDS011;18039;52.188;21.024;2023-05-10T09:15:51;4.78;;;1.90;;
31402;SDS011;18039;52.188;21.024;2023-05-10T09:18:18;4.05;;;2.08;;
31402;SDS011;18039;52.188;21.024;2023-05-10T09:20:46;4.07;;;2.15;;
31402;SDS011;18039;52.188;21.024;2023-05-10T09:23:13;7.68;;;1.80;;
31402;SDS011;18039;52.188;21.024;2023-05-10T09:25:41;8.80;;;2.20;;
31402;SDS011;18039;52.188;21.024;2023-05-10T09:28:09;5.20;;;2.05;;
31402;SDS011;18039;52.188;21.024;2023-05-10T09:30:36;4.38;;;2.20;;
31402;SDS011;18039;52.188;21.024;2023-05-10T09:33:04;5.18;;;1.90;;
31402;SDS011;18039;52.188;21.024;2023-05-10T09:35:32;5.22;;;2.20;;
31402;SDS011;18039;52.188;21.024;2023-05-10T09:38:03;3.75;;;2.50;;
31402;SDS011;18039;52.188;21.024;2023-05-10T09:40:31;7.63;;;2.25;;
31402;SDS011;18039;52.188;21.024;2023-05-10T09:43:03;5.15;;;2.40;;
31402;SDS011;18039;52.188;21.024;2023-05-10T09:45:31;4.32;;;1.90;;
31402;SDS011;18039;52.188;21.024;2023-05-10T09:48:02;8.23;;;1.98;;
31402;SDS011;18039;52.188;21.024;2023-05-10T09:50:30;5.93;;;2.30;;
31402;SDS011;18039;52.188;21.024;2023-05-10T09:52:58;5.25;;;2.30;;
31402;SDS011;18039;52.188;21.024;2023-05-10T09:58:08;8.60;;;2.45;;
31402;SDS011;18039;52.188;21.024;2023-05-10T10:00:39;4.40;;;2.15;;
31402;SDS011;18039;52.188;21.024;2023-05-10T10:03:15;3.58;;;1.98;;
31402;SDS011;18039;52.188;21.024;2023-05-10T10:05:47;4.57;;;2.10;;
31402;SDS011;18039;52.188;21.024;2023-05-10T10:08:17;7.03;;;2.20;;
31402;SDS011;18039;52.188;21.024;2023-05-10T10:10:44;5.22;;;2.25;;
31402;SDS011;18039;52.188;21.024;2023-05-10T10:13:13;9.77;;;2.28;;
31402;SDS011;18039;52.188;21.024;2023-05-10T10:15:41;6.07;;;2.40;;
31402;SDS011;18039;52.188;21.024;2023-05-10T10:18:13;5.80;;;2.17;;
31402;SDS011;18039;52.188;21.024;2023-05-10T10:20:44;4.88;;;1.90;;
31402;SDS011;18039;52.188;21.024;2023-05-10T10:23:12;3.65;;;1.95;;
31402;SDS011;18039;52.188;21.024;2023-05-10T10:25:43;6.47;;;1.80;;
31402;SDS011;18039;52.188;21.024;2023-05-10T10:30:43;4.30;;;2.22;;
31402;SDS011;18039;52.188;21.024;2023-05-10T10:36:17;9.25;;;2.20;;
31402;SDS011;18039;52.188;21.024;2023-05-10T10:41:27;11.48;;;2.72;;
31402;SDS011;18039;52.188;21.024;2023-05-10T10:50:05;4.55;;;2.00;;
31402;SDS011;18039;52.188;21.024;2023-05-10T10:52:37;4.68;;;1.90;;
31402;SDS011;18039;52.188;21.024;2023-05-10T11:08:09;6.93;;;1.80;;
31402;SDS011;18039;52.188;21.024;2023-05-10T11:10:40;8.90;;;2.20;;
31402;SDS011;18039;52.188;21.024;2023-05-10T11:13:26;5.93;;;1.95;;
31402;SDS011;18039;52.188;21.024;2023-05-10T11:16:15;10.25;;;2.88;;
31402;SDS011;18039;52.188;21.024;2023-05-10T11:19:03;8.35;;;2.10;;
31402;SDS011;18039;52.188;21.024;2023-05-10T11:21:47;5.20;;;1.95;;
31402;SDS011;18039;52.188;21.024;2023-05-10T11:26:50;9.10;;;2.45;;
31402;SDS011;18039;52.188;21.024;2023-05-10T11:29:20;4.28;;;2.60;;
31402;SDS011;18039;52.188;21.024;2023-05-10T11:31:49;3.83;;;2.13;;
31402;SDS011;18039;52.188;21.024;2023-05-10T11:34:25;6.75;;;2.85;;
31402;SDS011;18039;52.188;21.024;2023-05-10T11:36:57;5.22;;;2.33;;
31402;SDS011;18039;52.188;21.024;2023-05-10T11:39:30;6.22;;;1.85;;
31402;SDS011;18039;52.188;21.024;2023-05-10T11:42:00;5.80;;;2.55;;
31402;SDS011;18039;52.188;21.024;2023-05-10T11:44:31;7.88;;;2.20;;
31402;SDS011;18039;52.188;21.024;2023-05-10T11:47:00;6.63;;;2.50;;
31402;SDS011;18039;52.188;21.024;2023-05-10T11:49:27;6.03;;;2.08;;
31402;SDS011;18039;52.188;21.024;2023-05-10T11:52:05;7.57;;;2.40;;
31402;SDS011;18039;52.188;21.024;2023-05-10T11:54:34;4.47;;;2.50;;
31402;SDS011;18039;52.188;21.024;2023-05-10T11:57:04;8.57;;;2.05;;
31402;SDS011;18039;52.188;21.024;2023-05-10T11:59:31;7.90;;;2.00;;
31402;SDS011;18039;52.188;21.024;2023-05-10T12:01:59;5.25;;;2.20;;
31402;SDS011;18039;52.188;21.024;2023-05-10T12:04:26;9.38;;;2.33;;
31402;SDS011;18039;52.188;21.024;2023-05-10T12:06:56;3.72;;;2.35;;
31402;SDS011;18039;52.188;21.024;2023-05-10T12:09:24;7.10;;;2.08;;
31402;SDS011;18039;52.188;21.024;2023-05-10T12:12:09;6.43;;;1.98;;
31402;SDS011;18039;52.188;21.024;2023-05-10T12:14:36;6.47;;;2.38;;
31402;SDS011;18039;52.188;21.024;2023-05-10T12:17:04;11.68;;;2.15;;
31402;SDS011;18039;52.188;21.024;2023-05-10T12:19:40;6.93;;;2.17;;
31402;SDS011;18039;52.188;21.024;2023-05-10T12:22:08;4.53;;;2.33;;
31402;SDS011;18039;52.188;21.024;2023-05-10T12:24:35;10.25;;;2.33;;
31402;SDS011;18039;52.188;21.024;2023-05-10T12:27:05;7.20;;;2.40;;
31402;SDS011;18039;52.188;21.024;2023-05-10T12:29:34;4.53;;;1.98;;
31402;SDS011;18039;52.188;21.024;2023-05-10T12:32:03;8.65;;;2.55;;
31402;SDS011;18039;52.188;21.024;2023-05-10T12:34:31;9.20;;;2.75;;
31402;SDS011;18039;52.188;21.024;2023-05-10T12:37:00;7.53;;;2.10;;
31402;SDS011;18039;52.188;21.024;2023-05-10T12:39:45;3.97;;;1.90;;
31402;SDS011;18039;52.188;21.024;2023-05-10T12:42:13;5.10;;;1.98;;
31402;SDS011;18039;52.188;21.024;2023-05-10T12:44:40;6.00;;;2.17;;
31402;SDS011;18039;52.188;21.024;2023-05-10T12:47:08;5.80;;;1.98;;
31402;SDS011;18039;52.188;21.024;2023-05-10T12:49:35;3.17;;;2.05;;
31402;SDS011;18039;52.188;21.024;2023-05-10T12:52:02;4.95;;;1.88;;
31402;SDS011;18039;52.188;21.024;2023-05-10T12:54:29;5.75;;;2.08;;
31402;SDS011;18039;52.188;21.024;2023-05-10T12:56:57;7.40;;;2.63;;
31402;SDS011;18039;52.188;21.024;2023-05-10T12:59:24;7.13;;;2.58;;
31402;SDS011;18039;52.188;21.024;2023-05-10T13:01:52;12.32;;;2.20;;
31402;SDS011;18039;52.188;21.024;2023-05-10T13:04:19;6.68;;;1.75;;
31402;SDS011;18039;52.188;21.024;2023-05-10T13:06:47;3.33;;;1.88;;
31402;SDS011;18039;52.188;21.024;2023-05-10T13:09:14;6.45;;;1.95;;
31402;SDS011;18039;52.188;21.024;2023-05-10T13:11:42;6.28;;;2.03;;
31402;SDS011;18039;52.188;21.024;2023-05-10T13:14:09;4.70;;;2.20;;
31402;SDS011;18039;52.188;21.024;2023-05-10T13:16:37;4.00;;;1.75;;
31402;SDS011;18039;52.188;21.024;2023-05-10T13:19:07;5.07;;;2.30;;
31402;SDS011;18039;52.188;21.024;2023-05-10T13:21:35;6.72;;;2.00;;
31402;SDS011;18039;52.188;21.024;2023-05-10T13:24:03;4.07;;;2.33;;
31402;SDS011;18039;52.188;21.024;2023-05-10T13:26:31;4.80;;;1.88;;
31402;SDS011;18039;52.188;21.024;2023-05-10T13:28:59;4.85;;;2.20;;
31402;SDS011;18039;52.188;21.024;2023-05-10T13:31:28;5.95;;;1.92;;
31402;SDS011;18039;52.188;21.024;2023-05-10T13:33:56;6.85;;;2.17;;
31402;SDS011;18039;52.188;21.024;2023-05-10T13:36:24;4.22;;;1.92;;
31402;SDS011;18039;52.188;21.024;2023-05-10T13:38:51;5.47;;;2.10;;
31402;SDS011;18039;52.188;21.024;2023-05-10T13:41:19;5.32;;;1.85;;
31402;SDS011;18039;52.188;21.024;2023-05-10T13:43:47;4.05;;;1.92;;
31402;SDS011;18039;52.188;21.024;2023-05-10T13:46:16;2.97;;;1.70;;
31402;SDS011;18039;52.188;21.024;2023-05-10T13:48:45;7.03;;;2.03;;
31402;SDS011;18039;52.188;21.024;2023-05-10T13:51:13;7.30;;;1.80;;
31402;SDS011;18039;52.188;21.024;2023-05-10T13:53:41;9.07;;;2.83;;
31402;SDS011;18039;52.188;21.024;2023-05-10T13:56:09;6.65;;;1.70;;
31402;SDS011;18039;52.188;21.024;2023-05-10T13:58:37;6.72;;;1.92;;
31402;SDS011;18039;52.188;21.024;2023-05-10T14:01:04;5.85;;;1.70;;
31402;SDS011;18039;52.188;21.024;2023-05-10T14:03:32;4.90;;;1.92;;
31402;SDS011;18039;52.188;21.024;2023-05-10T14:06:00;6.88;;;1.98;;
31402;SDS011;18039;52.188;21.024;2023-05-10T14:08:27;7.22;;;2.58;;
31402;SDS011;18039;52.188;21.024;2023-05-10T14:10:55;7.45;;;1.92;;
31402;SDS011;18039;52.188;21.024;2023-05-10T14:13:23;6.72;;;2.00;;
31402;SDS011;18039;52.188;21.024;2023-05-10T14:15:52;3.17;;;2.28;;
31402;SDS011;18039;52.188;21.024;2023-05-10T14:18:21;4.95;;;1.77;;
31402;SDS011;18039;52.188;21.024;2023-05-10T14:20:48;4.38;;;2.17;;
31402;SDS011;18039;52.188;21.024;2023-05-10T14:23:16;3.13;;;1.80;;
31402;SDS011;18039;52.188;21.024;2023-05-10T14:25:43;3.60;;;1.92;;
31402;SDS011;18039;52.188;21.024;2023-05-10T14:28:10;2.42;;;1.95;;
31402;SDS011;18039;52.188;21.024;2023-05-10T14:30:39;6.78;;;1.90;;
31402;SDS011;18039;52.188;21.024;2023-05-10T14:33:06;7.32;;;2.08;;
31402;SDS011;18039;52.188;21.024;2023-05-10T14:35:35;3.20;;;1.90;;
31402;SDS011;18039;52.188;21.024;2023-05-10T14:38:03;10.82;;;2.55;;
31402;SDS011;18039;52.188;21.024;2023-05-10T14:40:30;7.78;;;2.13;;
31402;SDS011;18039;52.188;21.024;2023-05-10T14:42:58;7.35;;;2.38;;
31402;SDS011;18039;52.188;21.024;2023-05-10T14:45:25;4.65;;;1.80;;
31402;SDS011;18039;52.188;21.024;2023-05-10T14:47:53;10.93;;;2.10;;
31402;SDS011;18039;52.188;21.024;2023-05-10T14:50:21;4.97;;;2.40;;
31402;SDS011;18039;52.188;21.024;2023-05-10T14:53:02;4.05;;;1.63;;
31402;SDS011;18039;52.188;21.024;2023-05-10T14:55:30;4.18;;;2.08;;
31402;SDS011;18039;52.188;21.024;2023-05-10T14:57:57;5.40;;;2.22;;
31402;SDS011;18039;52.188;21.024;2023-05-10T15:00:26;9.77;;;1.67;;
31402;SDS011;18039;52.188;21.024;2023-05-10T15:02:55;5.15;;;1.60;;
31402;SDS011;18039;52.188;21.024;2023-05-10T15:05:23;4.97;;;1.63;;
31402;SDS011;18039;52.188;21.024;2023-05-10T15:07:51;5.57;;;1.73;;
31402;SDS011;18039;52.188;21.024;2023-05-10T15:10:19;9.55;;;2.05;;
31402;SDS011;18039;52.188;21.024;2023-05-10T15:12:46;5.68;;;1.80;;
31402;SDS011;18039;52.188;21.024;2023-05-10T15:15:14;7.15;;;1.90;;
31402;SDS011;18039;52.188;21.024;2023-05-10T15:17:42;7.35;;;2.40;;
31402;SDS011;18039;52.188;21.024;2023-05-10T15:20:10;5.22;;;1.95;;
31402;SDS011;18039;52.188;21.024;2023-05-10T15:22:38;15.13;;;2.92;;
31402;SDS011;18039;52.188;21.024;2023-05-10T15:25:09;4.18;;;1.80;;
31402;SDS011;18039;52.188;21.024;2023-05-10T15:27:37;5.63;;;1.70;;
31402;SDS011;18039;52.188;21.024;2023-05-10T15:30:05;7.10;;;1.75;;
31402;SDS011;18039;52.188;21.024;2023-05-10T15:32:33;12.45;;;2.35;;
31402;SDS011;18039;52.188;21.024;2023-05-10T15:35:02;3.70;;;1.80;;
31402;SDS011;18039;52.188;21.024;2023-05-10T15:37:30;6.40;;;1.95;;
31402;SDS011;18039;52.188;21.024;2023-05-10T15:39:57;4.63;;;2.00;;
31402;SDS011;18039;52.188;21.024;2023-05-10T15:42:30;6.68;;;1.88;;
31402;SDS011;18039;52.188;21.024;2023-05-10T15:44:59;8.57;;;2.58;;
31402;SDS011;18039;52.188;21.024;2023-05-10T15:47:29;4.60;;;1.75;;